Time;durP1;ratioP1;P1;durP2;ratioP2;P2;SDS_P1;SDS_P2;PMS_P1;PMS_P2;Temp;Humidity;BMP_temperature;BMP_pressure;BME280_temperature;BME280_humidity;BME280_pressure;Samples;Min_cycle;Max_cycle;Signal;HPM_P1;HPM_P2
2021/12/25 00:00:47;;;;;;;7.20;1.90;;;;;;;;;;5050344;28;20507;-79
2021/12/25 00:03:15;;;;;;;4.05;1.45;;;;;;;;;;5036457;28;20072;-77
2021/12/25 00:05:41;;;;;;;3.65;1.90;;;;;;;;;;5030812;28;20119;-76
2021/12/25 00:08:07;;;;;;;5.80;1.60;;;;;;;;;;5005189;28;20103;-74
2021/12/25 00:10:33;;;;;;;2.30;1.50;;;;;;;;;;5020240;28;21790;-75
2021/12/25 00:13:00;;;;;;;3.53;1.80;;;;;;;;;;5020881;28;20049;-76
2021/12/25 00:15:26;;;;;;;3.15;1.73;;;;;;;;;;5035132;28;20041;-74
2021/12/25 00:17:52;;;;;;;4.75;1.90;;;;;;;;;;5053923;28;20511;-76
2021/12/25 00:20:19;;;;;;;3.33;1.50;;;;;;;;;;5018931;28;20053;-74
2021/12/25 00:22:45;;;;;;;5.50;1.67;;;;;;;;;;5017306;28;20072;-74
2021/12/25 00:25:11;;;;;;;2.55;1.45;;;;;;;;;;5019583;28;20045;-75
2021/12/25 00:35:11;;;;;;;5.07;1.88;;;;;;;;;;5015729;28;20041;-73
2021/12/25 00:37:37;;;;;;;5.13;1.52;;;;;;;;;;4998697;28;20849;-74
2021/12/25 00:40:03;;;;;;;4.57;1.92;;;;;;;;;;5018083;28;20041;-74
2021/12/25 00:42:30;;;;;;;2.47;1.38;;;;;;;;;;5016428;28;20041;-73
2021/12/25 00:44:56;;;;;;;3.90;1.73;;;;;;;;;;5014324;28;20041;-74
2021/12/25 00:47:22;;;;;;;2.65;1.77;;;;;;;;;;5002985;28;20053;-74
2021/12/25 00:49:49;;;;;;;3.83;1.60;;;;;;;;;;5017413;28;20049;-74
2021/12/25 00:52:15;;;;;;;2.50;1.42;;;;;;;;;;5027068;28;20053;-73
2021/12/25 00:54:41;;;;;;;6.60;2.00;;;;;;;;;;5014291;28;20045;-72
2021/12/25 00:57:08;;;;;;;2.65;1.70;;;;;;;;;;5035502;28;20075;-74
2021/12/25 00:59:34;;;;;;;7.55;1.80;;;;;;;;;;5015702;28;20441;-75
2021/12/25 01:02:00;;;;;;;4.32;1.40;;;;;;;;;;5007888;28;20129;-74
2021/12/25 01:04:26;;;;;;;6.13;1.88;;;;;;;;;;5002865;28;20119;-72
2021/12/25 01:06:52;;;;;;;2.50;1.50;;;;;;;;;;5017372;28;20477;-74
2021/12/25 01:09:18;;;;;;;4.32;1.60;;;;;;;;;;5012518;28;20087;-74
2021/12/25 01:11:47;;;;;;;4.63;1.65;;;;;;;;;;5009538;28;20072;-73
2021/12/25 01:14:25;;;;;;;3.10;1.75;;;;;;;;;;5031020;28;20069;-72
2021/12/25 01:30:24;;;;;;;4.90;1.98;;;;;;;;;;5007933;28;20395;-72
2021/12/25 01:41:27;;;;;;;3.10;1.50;;;;;;;;;;5016186;28;20053;-71
2021/12/25 01:49:23;;;;;;;4.97;1.60;;;;;;;;;;5016241;28;20121;-73
2021/12/25 01:51:49;;;;;;;2.15;1.42;;;;;;;;;;5006837;28;20060;-73
2021/12/25 01:54:15;;;;;;;4.32;1.60;;;;;;;;;;5028954;28;20452;-71
2021/12/25 01:56:41;;;;;;;3.78;1.52;;;;;;;;;;5013422;28;20048;-73
2021/12/25 01:59:07;;;;;;;2.72;1.50;;;;;;;;;;5007111;28;20103;-72
2021/12/25 02:01:33;;;;;;;3.22;1.63;;;;;;;;;;5002776;28;20041;-74
2021/12/25 02:03:59;;;;;;;3.35;1.30;;;;;;;;;;5027245;28;20060;-72
2021/12/25 02:06:26;;;;;;;5.95;1.60;;;;;;;;;;5015645;28;20041;-72
2021/12/25 02:08:52;;;;;;;2.97;1.70;;;;;;;;;;4999036;28;20049;-73
2021/12/25 02:11:18;;;;;;;3.25;1.38;;;;;;;;;;5011593;28;20408;-71
2021/12/25 02:13:46;;;;;;;1.70;1.30;;;;;;;;;;5015249;28;20041;-76
2021/12/25 02:16:16;;;;;;;2.30;1.50;;;;;;;;;;5007196;28;20038;-74
2021/12/25 02:19:03;;;;;;;2.40;1.50;;;;;;;;;;5041822;28;20120;-70
2021/12/25 02:21:37;;;;;;;3.15;1.42;;;;;;;;;;5028902;28;20073;-72
2021/12/25 02:24:04;;;;;;;2.80;1.58;;;;;;;;;;5027374;28;20045;-72
2021/12/25 02:26:30;;;;;;;3.72;1.75;;;;;;;;;;5033512;28;20503;-71
2021/12/25 02:28:56;;;;;;;3.33;1.40;;;;;;;;;;5030622;28;20047;-71
2021/12/25 02:31:23;;;;;;;1.42;1.25;;;;;;;;;;5052481;28;20102;-71
2021/12/25 02:33:49;;;;;;;3.17;1.42;;;;;;;;;;5022974;28;20045;-73
2021/12/25 02:36:15;;;;;;;3.30;1.45;;;;;;;;;;5033390;28;20041;-70
2021/12/25 02:38:41;;;;;;;2.05;1.40;;;;;;;;;;5040821;28;20042;-72
2021/12/25 02:41:07;;;;;;;1.40;1.30;;;;;;;;;;5024060;28;20464;-73
2021/12/25 02:43:34;;;;;;;3.45;1.48;;;;;;;;;;5036561;28;20051;-72
2021/12/25 02:46:04;;;;;;;4.07;1.65;;;;;;;;;;5053206;28;20140;-70
2021/12/25 02:48:31;;;;;;;2.97;1.48;;;;;;;;;;5020367;28;20045;-71
2021/12/25 02:50:57;;;;;;;1.98;1.40;;;;;;;;;;5036872;28;20405;-72
2021/12/25 02:53:23;;;;;;;1.58;1.38;;;;;;;;;;5030352;28;20056;-72
2021/12/25 02:55:50;;;;;;;1.83;1.65;;;;;;;;;;5036588;28;20056;-73
2021/12/25 02:58:19;;;;;;;3.75;1.40;;;;;;;;;;5033871;28;20057;-74
2021/12/25 03:00:47;;;;;;;3.47;1.70;;;;;;;;;;5028353;28;20045;-73
2021/12/25 03:03:13;;;;;;;1.35;1.17;;;;;;;;;;5024552;28;20048;-70
2021/12/25 03:05:40;;;;;;;2.47;1.50;;;;;;;;;;5026980;28;20111;-73
2021/12/25 03:08:08;;;;;;;2.05;1.38;;;;;;;;;;5025361;28;20045;-70
2021/12/25 03:10:35;;;;;;;1.40;1.30;;;;;;;;;;5034838;28;20053;-72
2021/12/25 03:13:17;;;;;;;2.58;1.30;;;;;;;;;;5059259;28;20065;-69
2021/12/25 03:15:48;;;;;;;3.38;1.20;;;;;;;;;;5036058;28;20037;-70
2021/12/25 03:18:23;;;;;;;1.98;1.40;;;;;;;;;;5068422;28;20049;-73
2021/12/25 03:20:50;;;;;;;1.77;1.48;;;;;;;;;;5053034;28;20071;-73
2021/12/25 03:23:21;;;;;;;3.03;1.15;;;;;;;;;;5025972;28;20041;-72
2021/12/25 03:25:48;;;;;;;1.80;1.50;;;;;;;;;;5037641;28;20111;-74
2021/12/25 03:28:15;;;;;;;2.80;1.30;;;;;;;;;;5033295;28;20123;-71
2021/12/25 03:30:43;;;;;;;1.13;1.10;;;;;;;;;;5038416;28;20124;-72
2021/12/25 03:33:11;;;;;;;1.88;1.67;;;;;;;;;;5037677;28;20116;-70
2021/12/25 03:35:37;;;;;;;2.25;1.30;;;;;;;;;;5027224;28;20050;-72
2021/12/25 03:38:04;;;;;;;1.95;1.30;;;;;;;;;;5067098;28;20448;-74
2021/12/25 03:40:30;;;;;;;2.33;1.35;;;;;;;;;;5038756;28;20056;-72
2021/12/25 03:42:56;;;;;;;1.80;1.20;;;;;;;;;;5037455;28;20294;-71
2021/12/25 03:45:23;;;;;;;3.85;1.40;;;;;;;;;;5055669;28;20056;-71
2021/12/25 03:47:52;;;;;;;1.40;1.20;;;;;;;;;;5036076;28;20041;-71
2021/12/25 03:53:10;;;;;;;2.38;1.20;;;;;;;;;;5046857;28;20053;-73
2021/12/25 03:58:27;;;;;;;1.83;1.35;;;;;;;;;;5033392;28;20044;-73
2021/12/25 04:00:59;;;;;;;1.42;1.30;;;;;;;;;;5035015;28;20052;-75
2021/12/25 04:03:40;;;;;;;2.75;1.30;;;;;;;;;;5070815;28;20049;-75
2021/12/25 04:06:09;;;;;;;2.33;1.30;;;;;;;;;;5034715;28;20056;-75
2021/12/25 04:08:42;;;;;;;1.30;1.20;;;;;;;;;;5062996;28;20056;-73
2021/12/25 04:11:15;;;;;;;1.65;1.20;;;;;;;;;;5036959;28;20045;-73
2021/12/25 04:13:41;;;;;;;1.60;1.30;;;;;;;;;;5011455;28;20119;-74
2021/12/25 04:16:07;;;;;;;1.77;1.25;;;;;;;;;;5060462;28;20048;-73
2021/12/25 04:18:33;;;;;;;3.50;1.42;;;;;;;;;;5025965;28;20056;-71
2021/12/25 04:20:59;;;;;;;2.13;1.50;;;;;;;;;;5034973;28;20056;-73
2021/12/25 04:23:28;;;;;;;1.40;1.30;;;;;;;;;;5031870;28;20076;-72
2021/12/25 04:25:56;;;;;;;1.38;1.10;;;;;;;;;;5033963;28;20076;-73
2021/12/25 04:28:36;;;;;;;1.85;1.30;;;;;;;;;;5028849;28;20046;-73
2021/12/25 04:31:25;;;;;;;2.47;1.17;;;;;;;;;;5035376;28;20345;-73
2021/12/25 05:01:39;;;;;;;2.08;1.40;;;;;;;;;;5038024;28;20099;-73
2021/12/25 05:01:44;;;;;;;1.83;1.25;;;;;;;;;;5045769;28;20114;-70
2021/12/25 05:04:11;;;;;;;2.17;1.10;;;;;;;;;;5035493;28;20080;-69
2021/12/25 05:06:37;;;;;;;2.55;1.33;;;;;;;;;;5070512;28;20044;-72
2021/12/25 05:09:03;;;;;;;3.10;1.45;;;;;;;;;;5068303;28;20041;-72
2021/12/25 05:11:29;;;;;;;1.48;1.23;;;;;;;;;;5028795;28;20053;-71
2021/12/25 05:13:55;;;;;;;3.35;1.20;;;;;;;;;;5068237;28;20063;-70
2021/12/25 05:16:22;;;;;;;1.85;1.27;;;;;;;;;;5062980;28;20425;-72
2021/12/25 05:18:50;;;;;;;2.22;1.20;;;;;;;;;;5021364;28;20042;-71
2021/12/25 05:21:18;;;;;;;1.40;1.30;;;;;;;;;;5043840;28;20334;-70
2021/12/25 05:23:44;;;;;;;3.88;1.30;;;;;;;;;;5033766;28;20056;-74
2021/12/25 05:26:10;;;;;;;1.17;1.17;;;;;;;;;;5039124;28;20056;-72
2021/12/25 05:28:41;;;;;;;3.40;1.30;;;;;;;;;;5047324;28;20326;-70
2021/12/25 05:31:08;;;;;;;1.65;1.20;;;;;;;;;;5053021;28;20045;-72
2021/12/25 05:33:34;;;;;;;1.85;1.40;;;;;;;;;;5035997;28;20049;-72
2021/12/25 05:36:00;;;;;;;1.83;1.40;;;;;;;;;;5036832;28;20041;-71
2021/12/25 05:38:26;;;;;;;2.05;1.30;;;;;;;;;;5051947;28;20407;-71
2021/12/25 05:40:52;;;;;;;2.42;1.40;;;;;;;;;;5036605;28;20098;-72
2021/12/25 05:43:19;;;;;;;1.77;1.48;;;;;;;;;;5034100;28;20041;-73
2021/12/25 05:45:46;;;;;;;4.53;1.67;;;;;;;;;;5033980;28;20072;-70
2021/12/25 05:48:12;;;;;;;2.38;1.58;;;;;;;;;;5028358;28;20041;-71
2021/12/25 05:50:38;;;;;;;1.50;1.20;;;;;;;;;;5017152;28;20041;-70
2021/12/25 05:53:05;;;;;;;1.85;1.33;;;;;;;;;;5054776;28;20048;-73
2021/12/25 05:55:32;;;;;;;1.63;1.30;;;;;;;;;;5026944;28;20041;-72
2021/12/25 05:57:58;;;;;;;1.20;1.10;;;;;;;;;;5028030;28;20071;-72
2021/12/25 06:00:24;;;;;;;3.53;1.48;;;;;;;;;;5025322;28;20124;-72
2021/12/25 06:02:51;;;;;;;3.00;1.40;;;;;;;;;;5035332;28;20430;-71
2021/12/25 06:05:17;;;;;;;2.55;1.33;;;;;;;;;;5052410;28;20059;-71
2021/12/25 06:07:43;;;;;;;3.28;1.65;;;;;;;;;;5019061;28;20049;-74
2021/12/25 06:10:10;;;;;;;1.40;1.30;;;;;;;;;;5035298;28;20490;-71
2021/12/25 06:12:41;;;;;;;1.65;1.30;;;;;;;;;;5050831;28;20048;-72
2021/12/25 06:15:11;;;;;;;2.17;1.20;;;;;;;;;;5032941;28;20051;-73
2021/12/25 06:17:37;;;;;;;2.95;1.27;;;;;;;;;;5036947;28;20120;-71
2021/12/25 06:20:04;;;;;;;2.42;1.40;;;;;;;;;;5056425;28;20068;-73
2021/12/25 06:22:31;;;;;;;3.67;1.52;;;;;;;;;;5037744;28;20102;-74
2021/12/25 06:24:57;;;;;;;2.35;1.30;;;;;;;;;;5031255;28;20124;-72
2021/12/25 06:27:23;;;;;;;1.60;1.23;;;;;;;;;;5034193;28;20067;-72
2021/12/25 06:29:50;;;;;;;3.00;1.30;;;;;;;;;;5031052;28;20087;-73
2021/12/25 06:32:16;;;;;;;2.42;1.20;;;;;;;;;;5037381;28;20041;-75
2021/12/25 06:34:43;;;;;;;1.40;1.27;;;;;;;;;;5039827;28;20087;-74
2021/12/25 06:37:09;;;;;;;5.57;1.77;;;;;;;;;;5038313;28;20334;-72
2021/12/25 06:39:35;;;;;;;1.52;1.42;;;;;;;;;;5023064;28;20063;-72
2021/12/25 06:42:02;;;;;;;2.47;1.30;;;;;;;;;;5039732;28;20045;-72
2021/12/25 06:44:28;;;;;;;1.55;1.27;;;;;;;;;;5051782;28;20030;-73
2021/12/25 06:46:58;;;;;;;1.50;1.40;;;;;;;;;;5019742;28;20041;-73
2021/12/25 06:49:24;;;;;;;1.42;1.30;;;;;;;;;;5035591;28;20456;-70
2021/12/25 06:51:51;;;;;;;1.65;1.50;;;;;;;;;;5046449;28;20040;-71
2021/12/25 06:54:18;;;;;;;3.00;1.40;;;;;;;;;;5040404;28;20407;-72
2021/12/25 06:56:46;;;;;;;1.95;1.35;;;;;;;;;;5056493;28;20056;-71
2021/12/25 06:59:12;;;;;;;3.22;1.33;;;;;;;;;;5028903;28;20040;-71
2021/12/25 07:01:38;;;;;;;1.88;1.40;;;;;;;;;;5027959;28;20037;-73
2021/12/25 07:04:06;;;;;;;3.25;1.33;;;;;;;;;;5021986;28;20449;-73
2021/12/25 07:06:33;;;;;;;1.50;1.30;;;;;;;;;;5039440;28;20309;-72
2021/12/25 07:08:59;;;;;;;2.17;1.40;;;;;;;;;;5028964;28;20104;-70
2021/12/25 07:11:25;;;;;;;2.03;1.48;;;;;;;;;;5036369;28;20051;-72
2021/12/25 07:13:52;;;;;;;2.30;1.50;;;;;;;;;;5035494;28;20052;-73
2021/12/25 07:16:18;;;;;;;1.85;1.50;;;;;;;;;;5031799;28;20084;-72
2021/12/25 07:18:45;;;;;;;4.10;1.40;;;;;;;;;;5036323;28;20042;-75
2021/12/25 07:21:11;;;;;;;3.25;1.67;;;;;;;;;;5040924;28;20136;-73
2021/12/25 07:23:38;;;;;;;1.80;1.60;;;;;;;;;;5028470;28;20356;-74
2021/12/25 07:26:04;;;;;;;1.45;1.15;;;;;;;;;;5036296;28;20037;-72
2021/12/25 07:28:31;;;;;;;1.75;1.20;;;;;;;;;;5028939;28;20425;-73
2021/12/25 07:31:00;;;;;;;2.50;1.50;;;;;;;;;;5039255;28;20037;-73
2021/12/25 07:33:26;;;;;;;3.20;1.52;;;;;;;;;;5033110;28;20128;-73
2021/12/25 07:35:53;;;;;;;1.42;1.30;;;;;;;;;;5026995;28;20048;-74
2021/12/25 07:38:20;;;;;;;2.70;1.60;;;;;;;;;;5056083;28;20059;-70
2021/12/25 07:40:46;;;;;;;3.47;1.30;;;;;;;;;;5056494;28;20128;-72
2021/12/25 07:43:13;;;;;;;2.50;1.50;;;;;;;;;;5038469;28;20048;-74
2021/12/25 07:45:39;;;;;;;4.32;1.50;;;;;;;;;;5038777;28;20045;-73
2021/12/25 07:48:06;;;;;;;3.70;1.42;;;;;;;;;;5072204;28;20044;-73
2021/12/25 07:50:33;;;;;;;2.13;1.30;;;;;;;;;;5033263;28;20508;-74
2021/12/25 07:53:00;;;;;;;5.05;1.90;;;;;;;;;;5045049;28;20070;-73
2021/12/25 07:55:31;;;;;;;2.45;1.40;;;;;;;;;;5076016;28;20048;-70
2021/12/25 07:57:58;;;;;;;1.55;1.45;;;;;;;;;;5061016;28;20076;-72
2021/12/25 08:00:24;;;;;;;2.22;1.40;;;;;;;;;;5030724;28;20447;-75
2021/12/25 08:02:50;;;;;;;4.15;1.88;;;;;;;;;;5038490;28;20106;-71
2021/12/25 08:05:16;;;;;;;1.42;1.33;;;;;;;;;;5038661;28;20041;-72
2021/12/25 08:07:43;;;;;;;1.70;1.27;;;;;;;;;;5037516;28;20366;-70
2021/12/25 08:10:13;;;;;;;1.95;1.45;;;;;;;;;;5038626;28;20076;-71
2021/12/25 08:12:56;;;;;;;1.70;1.60;;;;;;;;;;5035206;28;20823;-74
2021/12/25 08:15:23;;;;;;;3.78;1.60;;;;;;;;;;5026899;28;20107;-74
2021/12/25 08:17:49;;;;;;;2.78;1.60;;;;;;;;;;5030843;28;20044;-74
2021/12/25 08:20:16;;;;;;;4.18;1.67;;;;;;;;;;5046539;28;20065;-73
2021/12/25 08:22:43;;;;;;;5.82;2.10;;;;;;;;;;5037499;28;20164;-72
2021/12/25 08:25:10;;;;;;;3.25;1.70;;;;;;;;;;5032899;28;20049;-74
2021/12/25 08:27:37;;;;;;;2.05;1.85;;;;;;;;;;5043170;28;20056;-73
2021/12/25 08:30:07;;;;;;;2.50;1.52;;;;;;;;;;5036236;28;20041;-74
2021/12/25 08:32:35;;;;;;;1.92;1.52;;;;;;;;;;5034967;28;20053;-73
2021/12/25 08:35:01;;;;;;;2.03;1.60;;;;;;;;;;5036681;28;20103;-76
2021/12/25 08:37:27;;;;;;;3.25;1.80;;;;;;;;;;5020800;28;20069;-74
2021/12/25 08:39:55;;;;;;;2.60;1.60;;;;;;;;;;5021250;28;20060;-74
2021/12/25 08:42:32;;;;;;;1.52;1.42;;;;;;;;;;5048318;28;20043;-75
2021/12/25 08:47:27;;;;;;;3.20;1.70;;;;;;;;;;5025326;28;20041;-75
2021/12/25 08:49:54;;;;;;;1.50;1.40;;;;;;;;;;5016806;28;20049;-79
2021/12/25 08:52:24;;;;;;;1.67;1.58;;;;;;;;;;5007557;28;20075;-75
2021/12/25 08:54:51;;;;;;;2.05;1.30;;;;;;;;;;5018931;28;20098;-75
2021/12/25 09:00:13;;;;;;;1.33;1.25;;;;;;;;;;5037323;28;20041;-77
2021/12/25 09:02:42;;;;;;;2.30;1.27;;;;;;;;;;5018897;28;20033;-76
2021/12/25 09:05:08;;;;;;;2.35;1.40;;;;;;;;;;5022423;28;20360;-77
2021/12/25 09:07:38;;;;;;;1.77;1.45;;;;;;;;;;5017616;28;20116;-76
2021/12/25 09:10:07;;;;;;;3.75;1.40;;;;;;;;;;5036546;28;20033;-77
2021/12/25 09:12:40;;;;;;;2.00;1.40;;;;;;;;;;5020094;28;20036;-77
2021/12/25 09:15:07;;;;;;;2.20;1.50;;;;;;;;;;5036495;28;20052;-75
2021/12/25 09:17:33;;;;;;;4.53;1.50;;;;;;;;;;5030790;28;20454;-76
2021/12/25 09:19:59;;;;;;;2.25;1.50;;;;;;;;;;5017289;28;20188;-75
2021/12/25 09:22:28;;;;;;;2.67;1.50;;;;;;;;;;5017231;28;20095;-78
2021/12/25 09:24:54;;;;;;;3.28;1.92;;;;;;;;;;5035860;28;20417;-74
2021/12/25 09:27:21;;;;;;;2.83;1.50;;;;;;;;;;5020004;28;20067;-77
2021/12/25 09:29:48;;;;;;;2.75;2.15;;;;;;;;;;5019723;28;20037;-77
2021/12/25 09:32:14;;;;;;;2.83;1.60;;;;;;;;;;5020744;28;20033;-75
2021/12/25 09:34:40;;;;;;;3.53;1.90;;;;;;;;;;5020562;28;20364;-77
2021/12/25 09:37:07;;;;;;;3.20;1.65;;;;;;;;;;5020457;28;20103;-76
2021/12/25 09:39:33;;;;;;;2.78;1.38;;;;;;;;;;5019548;28;20052;-76
2021/12/25 09:41:59;;;;;;;3.17;1.40;;;;;;;;;;5019270;28;20171;-78
2021/12/25 09:44:26;;;;;;;1.55;1.40;;;;;;;;;;5019914;28;20092;-77
2021/12/25 09:46:52;;;;;;;1.52;1.40;;;;;;;;;;5020208;28;20040;-75
2021/12/25 09:49:18;;;;;;;1.88;1.38;;;;;;;;;;5019056;28;20044;-75
2021/12/25 09:51:45;;;;;;;1.42;1.33;;;;;;;;;;5020969;28;20108;-77
2021/12/25 09:54:15;;;;;;;1.55;1.38;;;;;;;;;;5046085;28;20069;-75
2021/12/25 09:56:43;;;;;;;1.65;1.50;;;;;;;;;;5034842;28;20033;-75
2021/12/25 09:59:12;;;;;;;2.33;1.70;;;;;;;;;;5019766;28;20068;-76
2021/12/25 10:01:40;;;;;;;1.77;1.40;;;;;;;;;;5018965;28;20110;-75
2021/12/25 10:04:08;;;;;;;2.45;1.67;;;;;;;;;;5051350;28;20499;-74
2021/12/25 10:06:35;;;;;;;2.35;1.30;;;;;;;;;;5036195;28;20048;-75
2021/12/25 10:09:21;;;;;;;2.13;1.92;;;;;;;;;;5033703;28;20033;-74
2021/12/25 10:12:08;;;;;;;3.10;1.50;;;;;;;;;;5050770;28;20033;-73
2021/12/25 10:14:47;;;;;;;2.15;1.35;;;;;;;;;;5053612;28;20037;-74
2021/12/25 10:17:13;;;;;;;2.60;1.50;;;;;;;;;;5031558;28;20048;-74
2021/12/25 10:19:39;;;;;;;2.17;1.38;;;;;;;;;;5025119;28;20369;-75
2021/12/25 10:22:09;;;;;;;2.67;1.20;;;;;;;;;;5003790;28;20050;-76
2021/12/25 10:24:47;;;;;;;3.10;1.60;;;;;;;;;;5023182;28;20050;-76
2021/12/25 10:27:20;;;;;;;1.92;1.48;;;;;;;;;;5033188;28;20357;-76
2021/12/25 10:29:47;;;;;;;3.03;1.40;;;;;;;;;;5016678;28;20464;-74
2021/12/25 10:32:24;;;;;;;2.63;1.38;;;;;;;;;;5030990;28;20107;-76
2021/12/25 10:34:50;;;;;;;2.90;1.60;;;;;;;;;;4997191;28;20064;-75
2021/12/25 10:37:18;;;;;;;2.88;1.40;;;;;;;;;;4993638;28;20042;-76
2021/12/25 10:39:44;;;;;;;6.60;1.60;;;;;;;;;;5016150;28;20050;-75
2021/12/25 10:42:15;;;;;;;1.65;1.40;;;;;;;;;;5006830;28;20088;-74
2021/12/25 10:44:52;;;;;;;2.60;1.20;;;;;;;;;;5021076;28;20049;-75
2021/12/25 10:47:23;;;;;;;1.40;1.30;;;;;;;;;;5008827;28;20046;-77
2021/12/25 10:49:52;;;;;;;3.08;1.67;;;;;;;;;;5009656;28;20045;-75
2021/12/25 10:52:29;;;;;;;2.78;1.70;;;;;;;;;;5010206;28;20044;-78
2021/12/25 10:55:00;;;;;;;3.03;2.33;;;;;;;;;;5015244;28;20473;-76
2021/12/25 10:57:50;;;;;;;3.17;1.63;;;;;;;;;;4986913;28;20252;-76
2021/12/25 11:00:36;;;;;;;2.30;1.50;;;;;;;;;;4995798;28;20074;-78
2021/12/25 11:03:04;;;;;;;2.67;1.83;;;;;;;;;;5017025;28;20130;-76
2021/12/25 11:05:31;;;;;;;2.60;1.60;;;;;;;;;;5008630;28;20048;-76
2021/12/25 11:08:05;;;;;;;5.68;1.92;;;;;;;;;;5027573;28;20055;-74
2021/12/25 11:10:31;;;;;;;3.72;1.77;;;;;;;;;;5018092;28;20049;-75
2021/12/25 11:12:59;;;;;;;2.50;1.50;;;;;;;;;;5007926;28;20045;-75
2021/12/25 11:15:30;;;;;;;2.55;1.50;;;;;;;;;;5003048;28;20037;-75
2021/12/25 11:18:05;;;;;;;1.92;1.55;;;;;;;;;;5017917;28;20041;-73
2021/12/25 11:20:38;;;;;;;1.67;1.58;;;;;;;;;;5019728;28;20053;-74
2021/12/25 11:23:05;;;;;;;3.97;1.90;;;;;;;;;;5037106;28;20045;-74
2021/12/25 11:25:33;;;;;;;2.40;1.70;;;;;;;;;;5052032;28;20059;-74
2021/12/25 11:28:10;;;;;;;2.28;1.83;;;;;;;;;;5038586;28;20078;-76
2021/12/25 11:30:40;;;;;;;2.67;1.73;;;;;;;;;;5039313;28;20029;-76
2021/12/25 11:33:06;;;;;;;3.65;1.38;;;;;;;;;;5038794;28;20110;-73
2021/12/25 11:35:36;;;;;;;4.15;1.52;;;;;;;;;;5038882;28;20036;-76
2021/12/25 11:38:04;;;;;;;3.00;1.63;;;;;;;;;;5038506;28;20044;-75
2021/12/25 11:40:33;;;;;;;3.17;1.70;;;;;;;;;;5055797;28;20099;-76
2021/12/25 11:43:03;;;;;;;3.38;1.63;;;;;;;;;;5030155;28;20370;-76
2021/12/25 11:45:33;;;;;;;4.10;1.65;;;;;;;;;;5041343;28;20140;-75
2021/12/25 11:48:01;;;;;;;4.43;1.50;;;;;;;;;;5054948;28;20033;-75
2021/12/25 11:50:34;;;;;;;1.88;1.67;;;;;;;;;;5038712;28;20036;-78
2021/12/25 11:53:07;;;;;;;4.40;1.90;;;;;;;;;;5022344;28;20043;-77
2021/12/25 11:58:25;;;;;;;2.85;1.85;;;;;;;;;;5035698;28;20048;-75
2021/12/25 12:00:52;;;;;;;2.88;1.63;;;;;;;;;;5045350;28;20041;-74
2021/12/25 12:03:38;;;;;;;3.35;1.85;;;;;;;;;;5017204;28;20033;-77
2021/12/25 12:06:04;;;;;;;4.78;2.90;;;;;;;;;;5033442;28;20052;-76
2021/12/25 12:08:50;;;;;;;3.28;1.98;;;;;;;;;;5038236;28;20466;-75
2021/12/25 12:11:24;;;;;;;1.70;1.60;;;;;;;;;;5034826;28;20469;-75
2021/12/25 12:14:10;;;;;;;3.60;1.70;;;;;;;;;;5038511;28;20041;-77
2021/12/25 12:16:37;;;;;;;3.05;2.00;;;;;;;;;;5037027;28;20047;-74
2021/12/25 12:19:03;;;;;;;3.33;2.00;;;;;;;;;;5015312;28;20081;-74
2021/12/25 12:21:35;;;;;;;2.22;1.55;;;;;;;;;;5017987;28;20045;-76
2021/12/25 12:24:39;;;;;;;5.10;1.70;;;;;;;;;;5039496;28;20053;-74
2021/12/25 12:27:06;;;;;;;2.15;1.70;;;;;;;;;;5015977;28;20116;-76
2021/12/25 12:29:46;;;;;;;2.15;1.80;;;;;;;;;;5018434;28;20045;-76
2021/12/25 12:32:23;;;;;;;3.90;1.73;;;;;;;;;;5018549;28;20125;-75
2021/12/25 12:34:51;;;;;;;3.80;2.00;;;;;;;;;;5013166;28;20120;-75
2021/12/25 12:37:20;;;;;;;2.70;2.05;;;;;;;;;;4998500;28;20125;-77
2021/12/25 12:39:58;;;;;;;4.15;2.00;;;;;;;;;;5012265;28;20128;-77
2021/12/25 12:45:10;;;;;;;5.32;1.98;;;;;;;;;;5033432;28;20045;-77
2021/12/25 12:47:36;;;;;;;4.20;2.05;;;;;;;;;;4995346;28;20104;-76
2021/12/25 12:50:03;;;;;;;3.53;1.70;;;;;;;;;;5005855;28;20049;-76
2021/12/25 12:52:37;;;;;;;5.47;2.13;;;;;;;;;;5016629;28;20428;-74
2021/12/25 12:55:08;;;;;;;2.85;1.98;;;;;;;;;;5015387;28;20077;-77
2021/12/25 12:57:45;;;;;;;2.30;1.95;;;;;;;;;;5017484;28;20034;-76
2021/12/25 13:00:19;;;;;;;3.75;1.55;;;;;;;;;;5017850;28;20073;-79
2021/12/25 13:02:56;;;;;;;3.67;2.03;;;;;;;;;;5000431;28;20456;-78
2021/12/25 13:05:24;;;;;;;3.85;1.83;;;;;;;;;;5017375;28;20100;-74
2021/12/25 13:07:53;;;;;;;2.30;1.73;;;;;;;;;;5018157;28;20059;-77
2021/12/25 13:10:37;;;;;;;2.40;1.50;;;;;;;;;;5017934;28;20100;-77
2021/12/25 13:13:08;;;;;;;2.92;1.98;;;;;;;;;;5015902;28;20110;-77
2021/12/25 13:15:35;;;;;;;2.35;1.75;;;;;;;;;;5010581;28;20041;-75
2021/12/25 13:18:02;;;;;;;4.00;2.10;;;;;;;;;;5014817;28;20044;-75
2021/12/25 13:20:54;;;;;;;3.42;2.05;;;;;;;;;;5047488;28;20060;-75
2021/12/25 13:23:22;;;;;;;5.72;3.50;;;;;;;;;;5033397;28;20128;-75
2021/12/25 13:25:53;;;;;;;4.45;2.17;;;;;;;;;;5033754;28;20045;-76
2021/12/25 13:28:20;;;;;;;3.42;2.80;;;;;;;;;;5037541;28;20040;-76
2021/12/25 13:30:49;;;;;;;6.10;4.10;;;;;;;;;;5037301;28;20374;-77
2021/12/25 13:33:16;;;;;;;6.22;2.45;;;;;;;;;;5020534;28;20036;-75
2021/12/25 13:35:42;;;;;;;3.03;1.98;;;;;;;;;;5036519;28;20102;-77
2021/12/25 13:38:09;;;;;;;3.47;2.10;;;;;;;;;;5036871;28;20115;-75
2021/12/25 13:40:37;;;;;;;2.92;2.40;;;;;;;;;;5028318;28;20131;-75
2021/12/25 13:43:08;;;;;;;4.22;2.28;;;;;;;;;;5019166;28;20045;-76
2021/12/25 13:45:34;;;;;;;2.33;1.80;;;;;;;;;;5020259;28;20445;-75
2021/12/25 13:48:01;;;;;;;2.97;2.20;;;;;;;;;;5036687;28;20083;-75
2021/12/25 13:50:27;;;;;;;5.00;3.15;;;;;;;;;;5033745;28;20049;-75
2021/12/25 13:53:00;;;;;;;2.45;2.00;;;;;;;;;;5026141;28;20047;-76
2021/12/25 13:55:33;;;;;;;3.53;2.00;;;;;;;;;;5019222;28;20041;-76
2021/12/25 13:58:04;;;;;;;2.92;2.00;;;;;;;;;;5018759;28;20040;-76
2021/12/25 14:00:33;;;;;;;2.50;2.10;;;;;;;;;;5053647;28;20032;-76
2021/12/25 14:03:01;;;;;;;4.07;2.17;;;;;;;;;;5036395;28;20047;-75
2021/12/25 14:05:28;;;;;;;2.70;2.42;;;;;;;;;;5033963;28;20033;-77
2021/12/25 14:07:55;;;;;;;3.95;2.17;;;;;;;;;;5030992;28;20512;-76
2021/12/25 14:10:25;;;;;;;3.53;1.85;;;;;;;;;;5029367;28;20434;-75
2021/12/25 14:12:55;;;;;;;4.55;2.08;;;;;;;;;;5047575;28;20114;-75
2021/12/25 14:15:26;;;;;;;3.97;1.90;;;;;;;;;;5029483;28;20041;-76
2021/12/25 14:17:52;;;;;;;7.03;3.67;;;;;;;;;;5035556;28;20051;-76
2021/12/25 14:20:21;;;;;;;3.35;2.05;;;;;;;;;;5018341;28;20049;-75
2021/12/25 14:22:48;;;;;;;2.45;1.90;;;;;;;;;;5013444;28;20048;-77
2021/12/25 14:25:23;;;;;;;3.60;2.17;;;;;;;;;;5027499;28;20057;-75
2021/12/25 14:28:08;;;;;;;3.78;2.10;;;;;;;;;;5028802;28;20060;-78
2021/12/25 14:30:35;;;;;;;3.78;2.42;;;;;;;;;;5017062;28;20076;-76
2021/12/25 14:33:02;;;;;;;4.47;2.30;;;;;;;;;;5019365;28;20036;-75
2021/12/25 14:35:28;;;;;;;2.80;2.10;;;;;;;;;;5019813;28;20043;-76
2021/12/25 14:37:58;;;;;;;3.50;1.80;;;;;;;;;;5053159;28;20120;-77
2021/12/25 14:40:25;;;;;;;4.07;2.20;;;;;;;;;;5040181;28;20453;-77
2021/12/25 14:42:57;;;;;;;4.47;2.72;;;;;;;;;;5039269;28;20075;-76
2021/12/25 14:45:25;;;;;;;5.55;2.60;;;;;;;;;;5039490;28;20033;-76
2021/12/25 14:47:52;;;;;;;4.20;2.40;;;;;;;;;;5022231;28;20389;-78
2021/12/25 14:50:25;;;;;;;5.50;3.20;;;;;;;;;;5031674;28;20034;-75
2021/12/25 14:53:10;;;;;;;3.88;2.60;;;;;;;;;;5020850;28;20069;-76
2021/12/25 14:55:37;;;;;;;3.53;2.30;;;;;;;;;;5037152;28;20105;-75
2021/12/25 14:58:15;;;;;;;4.18;2.50;;;;;;;;;;5038762;28;20060;-76
2021/12/25 15:00:42;;;;;;;3.95;2.70;;;;;;;;;;5039204;28;20252;-74
2021/12/25 15:03:16;;;;;;;4.53;2.40;;;;;;;;;;5038754;28;20037;-77
2021/12/25 15:05:43;;;;;;;4.68;2.60;;;;;;;;;;5022638;28;20041;-76
2021/12/25 15:08:39;;;;;;;4.28;2.80;;;;;;;;;;5019777;28;20395;-78
2021/12/25 15:11:10;;;;;;;4.15;2.78;;;;;;;;;;5016617;28;20341;-76
2021/12/25 15:13:37;;;;;;;4.22;3.28;;;;;;;;;;5039267;28;20080;-75
2021/12/25 15:16:03;;;;;;;5.97;3.00;;;;;;;;;;5039544;28;20036;-76
2021/12/25 15:18:30;;;;;;;4.55;2.92;;;;;;;;;;5038731;28;20072;-74
2021/12/25 15:21:07;;;;;;;7.07;3.17;;;;;;;;;;5036831;28;20052;-76
2021/12/25 15:23:33;;;;;;;6.25;2.92;;;;;;;;;;5022344;28;20071;-78
2021/12/25 15:26:05;;;;;;;6.70;2.92;;;;;;;;;;5038932;28;20029;-76
2021/12/25 15:28:31;;;;;;;5.45;3.45;;;;;;;;;;5038932;28;20087;-78
2021/12/25 15:30:57;;;;;;;4.97;2.75;;;;;;;;;;5038787;28;20041;-76
2021/12/25 15:33:24;;;;;;;5.70;3.13;;;;;;;;;;5038836;28;20436;-76
2021/12/25 15:35:50;;;;;;;4.95;2.92;;;;;;;;;;5027989;28;20053;-76
2021/12/25 15:38:25;;;;;;;5.10;2.72;;;;;;;;;;5049100;28;20037;-74
2021/12/25 15:40:53;;;;;;;8.80;5.68;;;;;;;;;;5037918;28;20103;-77
2021/12/25 15:43:19;;;;;;;6.82;4.07;;;;;;;;;;5046342;28;20072;-78
2021/12/25 15:45:45;;;;;;;7.15;3.17;;;;;;;;;;5021825;28;20441;-74
2021/12/25 15:48:11;;;;;;;5.13;2.78;;;;;;;;;;5029413;28;20061;-78
2021/12/25 15:50:37;;;;;;;7.35;2.58;;;;;;;;;;5038596;28;20044;-75
2021/12/25 15:53:04;;;;;;;3.80;2.35;;;;;;;;;;5028899;28;20041;-75
2021/12/25 15:55:33;;;;;;;3.40;2.28;;;;;;;;;;5054085;28;20049;-74
2021/12/25 15:58:06;;;;;;;4.47;2.70;;;;;;;;;;5050555;28;20037;-76
2021/12/25 16:00:34;;;;;;;3.30;2.50;;;;;;;;;;5050419;28;20052;-76
2021/12/25 16:03:01;;;;;;;4.10;2.20;;;;;;;;;;5022068;28;20036;-75
2021/12/25 16:05:27;;;;;;;4.60;2.30;;;;;;;;;;5054603;28;20040;-76
2021/12/25 16:07:54;;;;;;;3.47;2.15;;;;;;;;;;5048525;28;20127;-74
2021/12/25 16:10:20;;;;;;;3.60;2.30;;;;;;;;;;5035677;28;20052;-73